Time;durP1;ratioP1;P1;durP2;ratioP2;P2;SDS_P1;SDS_P2;PMS_P1;PMS_P2;Temp;Humidity;BMP_temperature;BMP_pressure;BME280_temperature;BME280_humidity;BME280_pressure;Samples;Min_cycle;Max_cycle;Signal;HPM_P1;HPM_P2
2020/11/29 00:02:13;;;;;;;4.8;2.6;;;;;;;;;;;;;
2020/11/29 00:04:38;;;;;;;6.9;3.4;;;;;;;;;;;;;
2020/11/29 00:07:04;;;;;;;4.5;3.5;;;;;;;;;;;;;
2020/11/29 00:09:29;;;;;;;6.6;3.2;;;;;;;;;;;;;
2020/11/29 00:11:55;;;;;;;4.3;2.7;;;;;;;;;;;;;
2020/11/29 00:14:20;;;;;;;7;4;;;;;;;;;;;;;
2020/11/29 00:16:47;;;;;;;6.7;3.4;;;;;;;;;;;;;
2020/11/29 00:19:12;;;;;;;6;2.6;;;;;;;;;;;;;
2020/11/29 00:21:38;;;;;;;4.1;2.9;;;;;;;;;;;;;
2020/11/29 00:24:03;;;;;;;6.7;3.8;;;;;;;;;;;;;
2020/11/29 00:26:28;;;;;;;6.2;3.5;;;;;;;;;;;;;
2020/11/29 00:28:53;;;;;;;6.2;3.3;;;;;;;;;;;;;
2020/11/29 00:31:18;;;;;;;5.6;3.4;;;;;;;;;;;;;
2020/11/29 00:33:43;;;;;;;4.8;3;;;;;;;;;;;;;
2020/11/29 00:36:09;;;;;;;5.1;3.3;;;;;;;;;;;;;
2020/11/29 00:38:34;;;;;;;6.1;3.2;;;;;;;;;;;;;
2020/11/29 00:40:59;;;;;;;6.9;3.4;;;;;;;;;;;;;
2020/11/29 00:43:26;;;;;;;4.8;1.8;;;;;;;;;;;;;
2020/11/29 00:45:51;;;;;;;4.8;2.6;;;;;;;;;;;;;
2020/11/29 00:48:17;;;;;;;4.2;2.3;;;;;;;;;;;;;
2020/11/29 00:50:43;;;;;;;6.8;3;;;;;;;;;;;;;
2020/11/29 00:53:09;;;;;;;7;3.8;;;;;;;;;;;;;
2020/11/29 00:55:36;;;;;;;4.1;2.5;;;;;;;;;;;;;
2020/11/29 00:58:01;;;;;;;3.5;2.5;;;;;;;;;;;;;
2020/11/29 01:00:30;;;;;;;5;2.2;;;;;;;;;;;;;
2020/11/29 01:02:58;;;;;;;4;2.7;;;;;;;;;;;;;
2020/11/29 01:05:23;;;;;;;4.1;2.4;;;;;;;;;;;;;
2020/11/29 01:07:48;;;;;;;4.4;2.7;;;;;;;;;;;;;
2020/11/29 01:10:14;;;;;;;3.3;2.4;;;;;;;;;;;;;
2020/11/29 01:12:40;;;;;;;5.7;3.3;;;;;;;;;;;;;
2020/11/29 01:15:06;;;;;;;6;3.1;;;;;;;;;;;;;
2020/11/29 01:17:31;;;;;;;6.3;3.2;;;;;;;;;;;;;
2020/11/29 01:19:56;;;;;;;4.7;3.1;;;;;;;;;;;;;
2020/11/29 01:22:22;;;;;;;7.1;2.9;;;;;;;;;;;;;
2020/11/29 01:24:47;;;;;;;3.4;2.7;;;;;;;;;;;;;
2020/11/29 01:27:13;;;;;;;7.8;2.7;;;;;;;;;;;;;
2020/11/29 01:29:38;;;;;;;7.6;2.8;;;;;;;;;;;;;
2020/11/29 01:32:04;;;;;;;5.7;3.2;;;;;;;;;;;;;
2020/11/29 01:34:30;;;;;;;3.3;2.7;;;;;;;;;;;;;
2020/11/29 01:36:58;;;;;;;3;2.6;;;;;;;;;;;;;
2020/11/29 01:39:24;;;;;;;4.5;3.4;;;;;;;;;;;;;
2020/11/29 01:41:48;;;;;;;5.1;2.9;;;;;;;;;;;;;
2020/11/29 01:44:14;;;;;;;5.4;2.7;;;;;;;;;;;;;
2020/11/29 01:46:41;;;;;;;7.1;3.4;;;;;;;;;;;;;
2020/11/29 01:49:05;;;;;;;4.4;3.2;;;;;;;;;;;;;
2020/11/29 01:51:30;;;;;;;4.2;2.8;;;;;;;;;;;;;
2020/11/29 01:53:55;;;;;;;5.7;2.8;;;;;;;;;;;;;
2020/11/29 01:56:20;;;;;;;5;3.3;;;;;;;;;;;;;
2020/11/29 01:58:45;;;;;;;6.5;3.2;;;;;;;;;;;;;
2020/11/29 02:01:11;;;;;;;6.4;3.5;;;;;;;;;;;;;
2020/11/29 02:03:36;;;;;;;7.3;3.3;;;;;;;;;;;;;
2020/11/29 02:06:01;;;;;;;3.1;2.8;;;;;;;;;;;;;
2020/11/29 02:08:27;;;;;;;5.2;2.3;;;;;;;;;;;;;
2020/11/29 02:10:52;;;;;;;6.3;2.4;;;;;;;;;;;;;
2020/11/29 02:13:18;;;;;;;7.1;3.2;;;;;;;;;;;;;
2020/11/29 02:15:43;;;;;;;6.6;4.2;;;;;;;;;;;;;
2020/11/29 02:18:11;;;;;;;4.1;3;;;;;;;;;;;;;
2020/11/29 02:20:36;;;;;;;8.2;3.6;;;;;;;;;;;;;
2020/11/29 02:23:01;;;;;;;5.6;2.8;;;;;;;;;;;;;
2020/11/29 02:25:26;;;;;;;5.3;3.3;;;;;;;;;;;;;
2020/11/29 02:27:52;;;;;;;8;3.8;;;;;;;;;;;;;
2020/11/29 02:30:18;;;;;;;4.9;2.8;;;;;;;;;;;;;
2020/11/29 02:32:44;;;;;;;7.3;3.1;;;;;;;;;;;;;
2020/11/29 02:35:09;;;;;;;5.4;3.2;;;;;;;;;;;;;
2020/11/29 02:37:35;;;;;;;6.2;3.6;;;;;;;;;;;;;
2020/11/29 02:40:00;;;;;;;4.3;2.7;;;;;;;;;;;;;
2020/11/29 02:42:26;;;;;;;5.7;3.2;;;;;;;;;;;;;
2020/11/29 02:44:51;;;;;;;4.4;3.3;;;;;;;;;;;;;
2020/11/29 02:47:17;;;;;;;5.2;3.1;;;;;;;;;;;;;
2020/11/29 02:49:42;;;;;;;3.3;2.5;;;;;;;;;;;;;
2020/11/29 02:52:10;;;;;;;4;2.9;;;;;;;;;;;;;
2020/11/29 02:54:34;;;;;;;2.9;2.2;;;;;;;;;;;;;
2020/11/29 02:56:59;;;;;;;5.1;2.7;;;;;;;;;;;;;
2020/11/29 02:59:24;;;;;;;6.2;3.6;;;;;;;;;;;;;
2020/11/29 03:01:51;;;;;;;7.5;3.3;;;;;;;;;;;;;
2020/11/29 03:04:16;;;;;;;6.3;2.9;;;;;;;;;;;;;
2020/11/29 03:06:43;;;;;;;6.7;3.5;;;;;;;;;;;;;
2020/11/29 03:09:08;;;;;;;6.3;2.8;;;;;;;;;;;;;
2020/11/29 03:11:33;;;;;;;7.1;2.6;;;;;;;;;;;;;
2020/11/29 03:13:58;;;;;;;7.9;3.8;;;;;;;;;;;;;
2020/11/29 03:16:24;;;;;;;5.9;3.6;;;;;;;;;;;;;
2020/11/29 03:18:50;;;;;;;6.1;3.6;;;;;;;;;;;;;
2020/11/29 03:21:15;;;;;;;4.7;2.9;;;;;;;;;;;;;
2020/11/29 03:23:40;;;;;;;6;3.7;;;;;;;;;;;;;
2020/11/29 03:26:07;;;;;;;4.6;2.9;;;;;;;;;;;;;
2020/11/29 03:28:32;;;;;;;5.5;3.1;;;;;;;;;;;;;
2020/11/29 03:30:59;;;;;;;5.1;3.5;;;;;;;;;;;;;
2020/11/29 03:33:25;;;;;;;4;2.8;;;;;;;;;;;;;
2020/11/29 03:35:50;;;;;;;4.6;2.7;;;;;;;;;;;;;
2020/11/29 03:38:15;;;;;;;3.8;2.6;;;;;;;;;;;;;
2020/11/29 03:40:43;;;;;;;4.4;2.8;;;;;;;;;;;;;
2020/11/29 03:43:08;;;;;;;3.5;2.5;;;;;;;;;;;;;
2020/11/29 03:45:33;;;;;;;4.6;2.7;;;;;;;;;;;;;
2020/11/29 03:47:58;;;;;;;4.2;2.7;;;;;;;;;;;;;
2020/11/29 03:50:24;;;;;;;5.5;3.6;;;;;;;;;;;;;
2020/11/29 03:52:49;;;;;;;5.5;3.2;;;;;;;;;;;;;
2020/11/29 03:55:14;;;;;;;12.7;3;;;;;;;;;;;;;
2020/11/29 03:57:40;;;;;;;5.6;2.8;;;;;;;;;;;;;
2020/11/29 04:00:06;;;;;;;3.2;2.6;;;;;;;;;;;;;
2020/11/29 04:02:37;;;;;;;5.2;2.5;;;;;;;0.6;82.96191;939.1865;;;;
2020/11/29 04:05:02;;;;;;;5.7;3.6;;;;;;;0.44;82.43945;939.1498;;;;
2020/11/29 04:07:28;;;;;;;6.8;3.7;;;;;;;0.42;82.72559;939.2372;;;;
2020/11/29 04:09:53;;;;;;;4.2;3;;;;;;;0.2;82.58105;939.2573;;;;
2020/11/29 04:12:22;;;;;;;4.4;2.7;;;;;;;-0.08;83.61816;939.2375;;;;
2020/11/29 04:14:51;;;;;;;5.6;3;;;;;;;-0.09;84.375;939.2637;;;;
2020/11/29 04:17:22;;;;;;;7.9;3.7;;;;;;;0;84.625;939.2806;;;;
2020/11/29 04:19:51;;;;;;;3;2.7;;;;;;;0.01;84.39355;939.2164;;;;
2020/11/29 04:22:17;;;;;;;5.6;2.2;;;;;;;-0.02;84.75586;939.2086;;;;
2020/11/29 04:24:44;;;;;;;4.4;2.7;;;;;;;0;85.09473;939.1739;;;;
2020/11/29 04:27:09;;;;;;;4.6;2.9;;;;;;;0.06;84.30566;939.1096;;;;
2020/11/29 04:29:38;;;;;;;4.7;2.5;;;;;;;0.22;83.99121;939.095;;;;
2020/11/29 04:32:03;;;;;;;7.1;3.2;;;;;;;0.2;83.36133;939.1764;;;;
2020/11/29 04:34:33;;;;;;;3.3;2.7;;;;;;;0.23;83.26953;939.1465;;;;
2020/11/29 04:36:58;;;;;;;5.6;3.7;;;;;;;0.19;82.83789;939.1426;;;;
2020/11/29 04:39:23;;;;;;;2.5;2.2;;;;;;;0.07;82.52344;939.1177;;;;
2020/11/29 04:41:49;;;;;;;5.1;2.8;;;;;;;0.26;82.30371;939.1453;;;;
2020/11/29 04:44:14;;;;;;;5.2;3.2;;;;;;;0.24;82.38965;939.1429;;;;
2020/11/29 04:46:39;;;;;;;9.6;4;;;;;;;0.29;82.16602;939.123;;;;
2020/11/29 04:49:09;;;;;;;3.9;2.5;;;;;;;0.4;82.12012;939.1042;;;;
2020/11/29 04:51:39;;;;;;;5.2;3;;;;;;;0.43;81.2793;939.1479;;;;
2020/11/29 04:54:09;;;;;;;5.5;3.5;;;;;;;0.36;81.56543;939.1942;;;;
2020/11/29 04:56:34;;;;;;;3.8;2;;;;;;;0.52;81.58496;939.1691;;;;
2020/11/29 04:58:59;;;;;;;4.5;3;;;;;;;0.58;81.33887;939.1971;;;;
2020/11/29 05:01:24;;;;;;;4.6;2.9;;;;;;;0.61;81.1123;939.1832;;;;
2020/11/29 05:03:51;;;;;;;5.5;3;;;;;;;0.67;81.49023;939.1758;;;;
2020/11/29 05:06:17;;;;;;;4.6;2.7;;;;;;;0.7;80.98438;939.16;;;;
2020/11/29 05:08:47;;;;;;;5.9;2.9;;;;;;;0.66;81.03125;939.2389;;;;
2020/11/29 05:11:12;;;;;;;5.7;3.9;;;;;;;0.56;81.68164;939.2347;;;;
2020/11/29 05:13:40;;;;;;;7.5;3.7;;;;;;;0.65;81.74316;939.2431;;;;
2020/11/29 05:16:09;;;;;;;3.4;2.4;;;;;;;0.59;82.03418;939.243;;;;
2020/11/29 05:18:34;;;;;;;3.2;2.4;;;;;;;0.68;81.94043;939.284;;;;
2020/11/29 05:21:04;;;;;;;4.5;2.5;;;;;;;0.73;81.72559;939.3457;;;;
2020/11/29 05:23:34;;;;;;;7.3;2.7;;;;;;;0.65;81.82129;939.3741;;;;
2020/11/29 05:25:59;;;;;;;11.4;3;;;;;;;0.55;81.82617;939.4146;;;;
2020/11/29 05:28:28;;;;;;;6.8;2.8;;;;;;;0.45;81.44824;939.4307;;;;
2020/11/29 05:30:55;;;;;;;3.7;2.5;;;;;;;0.53;81.56348;939.461;;;;
2020/11/29 05:33:22;;;;;;;5;2.6;;;;;;;0.66;81.05566;939.4796;;;;
2020/11/29 05:35:48;;;;;;;2.8;2.1;;;;;;;0.43;80.21875;939.4526;;;;
2020/11/29 05:38:14;;;;;;;3.2;2.5;;;;;;;0.27;80.48828;939.4214;;;;
2020/11/29 05:40:39;;;;;;;3.2;2.2;;;;;;;0.3;80.25977;939.4583;;;;
2020/11/29 05:43:09;;;;;;;2.5;2;;;;;;;0.23;80.81641;939.3868;;;;
2020/11/29 05:45:34;;;;;;;3.2;2.3;;;;;;;0.09;80.50977;939.3904;;;;
2020/11/29 05:48:05;;;;;;;4.9;2.6;;;;;;;0.04;80.52344;939.4277;;;;
2020/11/29 05:50:36;;;;;;;3.7;1.7;;;;;;;0.02;81.07715;939.4309;;;;
2020/11/29 05:53:01;;;;;;;2.3;1.8;;;;;;;0.09;81.69141;939.403;;;;
2020/11/29 05:55:26;;;;;;;3.1;2.2;;;;;;;0.32;81.41309;939.4584;;;;
2020/11/29 05:57:54;;;;;;;4.3;2.3;;;;;;;0.48;80.26074;939.4915;;;;
2020/11/29 06:00:19;;;;;;;3.8;2.8;;;;;;;0.5;79.28418;939.4842;;;;
2020/11/29 06:02:44;;;;;;;2.4;2;;;;;;;0.48;78.91309;939.4384;;;;
2020/11/29 06:05:12;;;;;;;5.5;2.4;;;;;;;0.54;79.00293;939.4696;;;;
2020/11/29 06:07:40;;;;;;;3.4;1.9;;;;;;;0.67;78.87012;939.4684;;;;
2020/11/29 06:10:06;;;;;;;4.2;2.4;;;;;;;0.47;78.24023;939.4863;;;;
2020/11/29 06:12:31;;;;;;;2.6;1.8;;;;;;;0.64;78.26074;939.4063;;;;
2020/11/29 06:14:56;;;;;;;2.2;2;;;;;;;0.58;77.26953;939.449;;;;
2020/11/29 06:17:26;;;;;;;3.5;2.3;;;;;;;0.62;77.62305;939.5129;;;;
2020/11/29 06:19:54;;;;;;;3.9;1.7;;;;;;;0.62;77.61035;939.5692;;;;
2020/11/29 06:22:24;;;;;;;2.3;2;;;;;;;0.64;77.80566;939.6064;;;;
2020/11/29 06:24:51;;;;;;;2.5;1.9;;;;;;;0.67;77.60938;939.5327;;;;
2020/11/29 06:27:16;;;;;;;4.4;2.4;;;;;;;0.42;77.25098;939.5959;;;;
2020/11/29 06:29:41;;;;;;;2.7;1.8;;;;;;;0.38;77.22168;939.5728;;;;
2020/11/29 06:32:06;;;;;;;2.8;2.4;;;;;;;0.47;77.47266;939.5705;;;;
2020/11/29 06:34:31;;;;;;;3;1.9;;;;;;;0.41;77.40723;939.5637;;;;
2020/11/29 06:37:01;;;;;;;3.2;1.5;;;;;;;0.6;76.92676;939.5418;;;;
2020/11/29 06:39:26;;;;;;;3.1;1.9;;;;;;;0.7;76.64355;939.6868;;;;
2020/11/29 06:41:56;;;;;;;3.8;2.2;;;;;;;0.8;76.61719;939.6418;;;;
2020/11/29 06:44:21;;;;;;;3.4;2.3;;;;;;;0.88;76.30859;939.7701;;;;
2020/11/29 06:46:46;;;;;;;2.1;1.9;;;;;;;0.91;75.79004;939.7647;;;;
2020/11/29 06:49:15;;;;;;;3;2.3;;;;;;;0.89;75.31641;939.7886;;;;
2020/11/29 06:51:40;;;;;;;4.7;2.5;;;;;;;1.02;74.74902;939.8123;;;;
2020/11/29 06:54:10;;;;;;;3.2;2.1;;;;;;;0.91;75.15234;939.7636;;;;
2020/11/29 06:56:34;;;;;;;4;2.1;;;;;;;0.84;75.31738;939.7642;;;;
2020/11/29 06:58:59;;;;;;;3.3;2.2;;;;;;;0.85;74.97461;939.7656;;;;
2020/11/29 07:01:31;;;;;;;4.4;2.8;;;;;;;0.63;75.72656;939.8661;;;;
2020/11/29 07:03:59;;;;;;;6.5;2.4;;;;;;;0.73;76.42578;939.9105;;;;
2020/11/29 07:06:24;;;;;;;5.3;2.7;;;;;;;0.66;76.40332;939.9199;;;;
2020/11/29 07:08:52;;;;;;;5.7;2.7;;;;;;;0.57;76.33105;939.9411;;;;
2020/11/29 07:11:17;;;;;;;4.3;3;;;;;;;0.59;76.15723;940.0057;;;;
2020/11/29 07:13:45;;;;;;;1.8;1.6;;;;;;;0.55;76.1582;939.9352;;;;
2020/11/29 07:16:10;;;;;;;2;1.7;;;;;;;0.67;76.57031;940.0095;;;;
2020/11/29 07:18:35;;;;;;;5.3;2.1;;;;;;;0.62;77.23145;940.0415;;;;
2020/11/29 07:21:05;;;;;;;2.6;2.2;;;;;;;0.77;76.37793;940.0586;;;;
2020/11/29 07:23:29;;;;;;;2.8;2.1;;;;;;;0.85;76.72754;940.0045;;;;
2020/11/29 07:25:57;;;;;;;3.6;2.6;;;;;;;0.91;75.76563;940.0522;;;;
2020/11/29 07:28:22;;;;;;;13.6;7.8;;;;;;;0.7;75.32715;940.1194;;;;
2020/11/29 07:30:54;;;;;;;10.4;6.5;;;;;;;0.84;75.53125;940.11;;;;
2020/11/29 07:33:22;;;;;;;13.3;8.1;;;;;;;0.57;75.97266;940.2182;;;;
2020/11/29 07:35:48;;;;;;;4.1;2.7;;;;;;;0.51;76.73047;940.2684;;;;
2020/11/29 07:38:18;;;;;;;4.7;2.9;;;;;;;0.43;77.49805;940.2374;;;;
2020/11/29 07:40:49;;;;;;;4.8;2.1;;;;;;;0.62;76.76465;940.2464;;;;
2020/11/29 07:43:13;;;;;;;3.3;2.5;;;;;;;0.84;76.45801;940.2338;;;;
2020/11/29 07:45:44;;;;;;;3.2;2.6;;;;;;;0.73;77.04102;940.2503;;;;
2020/11/29 07:48:14;;;;;;;6.5;3.2;;;;;;;0.74;76.44922;940.259;;;;
2020/11/29 07:50:39;;;;;;;3.8;2.5;;;;;;;0.62;76.94141;940.2617;;;;
2020/11/29 07:53:11;;;;;;;85.1;35.5;;;;;;;0.59;76.99219;940.2327;;;;
2020/11/29 07:55:36;;;;;;;4.7;3.2;;;;;;;0.51;77.75684;940.259;;;;
2020/11/29 08:01:16;;;;;;;6.1;3.9;;;;;;;0.99;77.73438;940.3067;;;;
2020/11/29 08:03:31;;;;;;;12.9;7.1;;;;;;;1.29;76.76172;940.2887;;;;
2020/11/29 08:06:01;;;;;;;5.2;2.6;;;;;;;1.32;76.64453;940.269;;;;
2020/11/29 08:08:26;;;;;;;22.1;11.8;;;;;;;1.18;77.18848;940.2894;;;;
2020/11/29 08:10:58;;;;;;;6.8;4.2;;;;;;;1.17;77.79004;940.2961;;;;
2020/11/29 08:13:27;;;;;;;8.1;3.9;;;;;;;1.1;78.38184;940.3187;;;;
2020/11/29 08:15:59;;;;;;;17.2;10;;;;;;;1.13;76.25293;940.3867;;;;
2020/11/29 08:18:30;;;;;;;2.5;1.9;;;;;;;0.96;76.40137;940.3878;;;;
2020/11/29 08:20:58;;;;;;;5;2.6;;;;;;;1.05;76.69824;940.4467;;;;
2020/11/29 08:26:02;;;;;;;12.3;3;;;;;;;1.36;76.2041;940.4897;;;;
2020/11/29 08:28:26;;;;;;;53.4;30.3;;;;;;;1.25;75.98438;940.4625;;;;
2020/11/29 08:30:57;;;;;;;6.5;3;;;;;;;1.26;76.30957;940.4631;;;;
2020/11/29 08:33:22;;;;;;;8.3;5.6;;;;;;;1.18;75.40137;940.4111;;;;
2020/11/29 08:35:47;;;;;;;5;3.4;;;;;;;0.83;76.16602;940.5572;;;;
2020/11/29 08:38:17;;;;;;;4.9;3;;;;;;;0.82;76.62012;940.5978;;;;
2020/11/29 08:40:46;;;;;;;4.5;4.1;;;;;;;0.82;77.22461;940.5996;;;;
2020/11/29 08:43:11;;;;;;;5.4;3.3;;;;;;;1.06;76.74316;940.5968;;;;
2020/11/29 08:45:37;;;;;;;6.4;3.9;;;;;;;1.15;76.26758;940.6175;;;;
2020/11/29 08:48:03;;;;;;;7.4;4.7;;;;;;;1.04;75.73438;940.6412;;;;
2020/11/29 08:50:27;;;;;;;3.9;2.6;;;;;;;0.91;76.06738;940.6769;;;;
2020/11/29 08:52:52;;;;;;;7;2.8;;;;;;;1.13;76.13086;940.68;;;;
2020/11/29 08:55:17;;;;;;;4.9;3.1;;;;;;;1.3;75.72363;940.6437;;;;
2020/11/29 08:57:44;;;;;;;2.9;2.2;;;;;;;1.34;74.83789;940.7092;;;;
2020/11/29 09:00:09;;;;;;;5.6;3.1;;;;;;;1.44;76.12988;940.7662;;;;
2020/11/29 09:02:36;;;;;;;5.2;2.9;;;;;;;1.65;74.71289;940.6677;;;;
2020/11/29 09:05:01;;;;;;;3.8;2.7;;;;;;;1.69;74.96777;940.7285;;;;
2020/11/29 09:07:28;;;;;;;4.3;2.2;;;;;;;1.86;74.89746;940.7148;;;;
2020/11/29 09:09:53;;;;;;;10.4;2.8;;;;;;;1.97;73.99805;940.8304;;;;
2020/11/29 09:12:20;;;;;;;2.6;2.1;;;;;;;2.19;72.68164;940.839;;;;
2020/11/29 09:14:45;;;;;;;4.7;2.5;;;;;;;2.23;72.15039;940.8254;;;;
2020/11/29 09:17:13;;;;;;;3.3;2;;;;;;;2.29;71.99316;940.8215;;;;
2020/11/29 09:19:38;;;;;;;5;3;;;;;;;2.43;71.80469;940.7733;;;;
2020/11/29 09:22:04;;;;;;;3.6;2.6;;;;;;;2.7;71.90527;940.8611;;;;
2020/11/29 09:24:29;;;;;;;3.4;2.4;;;;;;;2.95;70.3418;940.883;;;;
2020/11/29 09:26:55;;;;;;;3.5;2.1;;;;;;;3;69.07324;940.8743;;;;
2020/11/29 09:29:20;;;;;;;4.7;2.1;;;;;;;2.73;69.11914;940.8029;;;;
2020/11/29 09:31:47;;;;;;;3.6;2.3;;;;;;;3.14;69.46777;940.8103;;;;
2020/11/29 09:34:13;;;;;;;5.7;2.6;;;;;;;3.29;67.6709;940.8535;;;;
2020/11/29 09:36:39;;;;;;;4.3;2.3;;;;;;;3.42;69.08496;940.9001;;;;
2020/11/29 09:39:05;;;;;;;5.3;3.3;;;;;;;3.64;67.15527;940.9606;;;;
2020/11/29 09:41:32;;;;;;;2.7;2;;;;;;;3.76;66.60059;940.9469;;;;
2020/11/29 09:43:57;;;;;;;6.3;3.2;;;;;;;3.79;65.30273;940.9766;;;;
2020/11/29 09:46:24;;;;;;;3.8;2.3;;;;;;;4;64.94043;940.8911;;;;
2020/11/29 09:48:49;;;;;;;4.9;3.2;;;;;;;3.8;65.33789;940.8611;;;;
2020/11/29 09:51:14;;;;;;;4.3;2.7;;;;;;;3.9;66.48828;940.8465;;;;
2020/11/29 09:53:39;;;;;;;4.9;3.2;;;;;;;3.91;65.26465;940.8862;;;;
2020/11/29 09:56:05;;;;;;;6.8;3.4;;;;;;;4;65.14355;940.8328;;;;
2020/11/29 09:58:30;;;;;;;4.7;2.7;;;;;;;4.06;64.54395;940.9167;;;;
2020/11/29 10:00:58;;;;;;;5.3;3;;;;;;;4.15;64.47949;940.8553;;;;
2020/11/29 10:03:23;;;;;;;9.5;2.4;;;;;;;3.5;66.78418;940.8089;;;;
2020/11/29 10:05:48;;;;;;;3.2;1.7;;;;;;;3.59;66.99902;940.7194;;;;
2020/11/29 10:08:14;;;;;;;5.6;2.8;;;;;;;3.74;66.47461;940.8141;;;;
2020/11/29 10:10:45;;;;;;;6.7;2;;;;;;;3.32;66.90332;940.8118;;;;
2020/11/29 10:13:11;;;;;;;3.1;2.3;;;;;;;3.5;67.53711;940.772;;;;
2020/11/29 10:15:36;;;;;;;5.7;2.9;;;;;;;3.34;68.26465;940.6663;;;;
2020/11/29 10:18:04;;;;;;;4;2.5;;;;;;;3.41;68.14063;940.7109;;;;
2020/11/29 10:20:29;;;;;;;2.7;2.2;;;;;;;3.17;68.4043;940.687;;;;
2020/11/29 10:22:58;;;;;;;5.3;2.7;;;;;;;3.28;68.27539;940.7178;;;;
2020/11/29 10:25:23;;;;;;;6;2.6;;;;;;;3.39;68.10254;940.6332;;;;
2020/11/29 10:27:53;;;;;;;5;2.8;;;;;;;3.45;67.74219;940.6627;;;;
2020/11/29 10:30:19;;;;;;;4;3;;;;;;;3.4;67.61133;940.6675;;;;
2020/11/29 10:32:43;;;;;;;3.6;2.2;;;;;;;3.51;67.34766;940.6619;;;;
2020/11/29 10:35:09;;;;;;;3.1;1.9;;;;;;;3.68;65.7002;940.662;;;;
2020/11/29 10:37:35;;;;;;;3.3;2.4;;;;;;;3.42;66.96289;940.6624;;;;
2020/11/29 10:40:00;;;;;;;6.5;2.1;;;;;;;3.45;68.19141;940.6769;;;;
2020/11/29 10:42:25;;;;;;;6;3.2;;;;;;;3.61;67.36426;940.6649;;;;
2020/11/29 10:44:52;;;;;;;4.4;3.1;;;;;;;3.4;69.25;940.7155;;;;
2020/11/29 10:47:18;;;;;;;5.8;2.7;;;;;;;3.28;69.21875;940.6794;;;;
2020/11/29 10:49:45;;;;;;;2.7;1.6;;;;;;;3.35;68.93848;940.712;;;;
2020/11/29 10:52:08;;;;;;;6.3;2.8;;;;;;;3.36;68.67188;940.7117;;;;
2020/11/29 10:54:35;;;;;;;2.6;1.9;;;;;;;3.49;69.09668;940.7008;;;;
2020/11/29 10:57:00;;;;;;;5.3;2.6;;;;;;;3.55;68.20801;940.6386;;;;
2020/11/29 10:59:27;;;;;;;5.6;2.8;;;;;;;3.62;68.13965;940.7108;;;;
2020/11/29 11:01:52;;;;;;;5.2;3.2;;;;;;;3.53;68.0127;940.6942;;;;
2020/11/29 11:04:18;;;;;;;3.8;2.3;;;;;;;3.51;68.48145;940.6786;;;;
2020/11/29 11:06:43;;;;;;;4.8;2.6;;;;;;;3.4;68.91406;940.6683;;;;
2020/11/29 11:09:11;;;;;;;8.1;3.2;;;;;;;3.49;69.26563;940.7053;;;;
2020/11/29 11:11:36;;;;;;;5;3.5;;;;;;;3.46;69.54004;940.6852;;;;
2020/11/29 11:14:02;;;;;;;17.3;8.2;;;;;;;3.44;71.16504;940.7048;;;;
2020/11/29 11:16:28;;;;;;;15.2;8.1;;;;;;;3.53;73.0791;940.7149;;;;
2020/11/29 11:18:54;;;;;;;6.4;3;;;;;;;3.39;71.0459;940.6373;;;;
2020/11/29 11:21:19;;;;;;;4.2;2.2;;;;;;;3.43;70.72559;940.7274;;;;
2020/11/29 11:23:45;;;;;;;5.6;3.5;;;;;;;3.15;70.2998;940.6275;;;;
2020/11/29 11:26:10;;;;;;;2.5;2.2;;;;;;;2.93;71.14648;940.709;;;;
2020/11/29 11:28:37;;;;;;;7.2;3.4;;;;;;;2.84;72.56836;940.7285;;;;
2020/11/29 11:31:02;;;;;;;5.9;2.5;;;;;;;2.71;73.07422;940.7023;;;;
2020/11/29 11:33:29;;;;;;;3.6;2.7;;;;;;;2.77;72.67969;940.7006;;;;
2020/11/29 11:35:54;;;;;;;5.1;2.6;;;;;;;2.89;72.44336;940.7164;;;;
2020/11/29 11:38:20;;;;;;;6;2.6;;;;;;;2.95;72.70898;940.6816;;;;
2020/11/29 11:40:45;;;;;;;4.7;2.9;;;;;;;3.04;71.97559;940.6176;;;;
2020/11/29 11:43:11;;;;;;;6.4;3.2;;;;;;;2.72;73.35547;940.7735;;;;
2020/11/29 11:45:37;;;;;;;3.7;2.2;;;;;;;2.8;73.25586;940.7444;;;;
2020/11/29 11:48:04;;;;;;;3.2;2.7;;;;;;;2.95;72.84375;940.7524;;;;
2020/11/29 11:50:30;;;;;;;2.6;1.9;;;;;;;3.08;72.65332;940.6959;;;;
2020/11/29 11:52:56;;;;;;;6.1;3.2;;;;;;;2.92;73.07617;940.7192;;;;
2020/11/29 11:55:22;;;;;;;2.9;2.1;;;;;;;3.17;72.40137;940.7558;;;;
2020/11/29 11:57:49;;;;;;;5.9;3.1;;;;;;;3.35;71.2627;940.7017;;;;
2020/11/29 12:00:14;;;;;;;3.9;2.4;;;;;;;3.46;70.65234;940.6908;;;;
2020/11/29 12:02:40;;;;;;;6.1;3.6;;;;;;;3.62;69.95996;940.7303;;;;
2020/11/29 12:05:05;;;;;;;4.1;2.4;;;;;;;3.69;69.64551;940.6417;;;;
2020/11/29 12:07:31;;;;;;;4.8;3;;;;;;;3.7;69.15332;940.6422;;;;
2020/11/29 12:09:56;;;;;;;5.8;2.6;;;;;;;3.62;69.34375;940.6291;;;;
2020/11/29 12:12:21;;;;;;;5;2.7;;;;;;;3.34;70.3418;940.67;;;;
2020/11/29 12:14:47;;;;;;;8.1;3.3;;;;;;;3.17;71.6377;940.6188;;;;
2020/11/29 12:17:15;;;;;;;7.7;3;;;;;;;3.18;71.54785;940.6506;;;;
2020/11/29 12:19:40;;;;;;;4.7;2.9;;;;;;;3.13;71.63965;940.6728;;;;
2020/11/29 12:22:06;;;;;;;3.2;2.5;;;;;;;2.97;72.10742;940.6887;;;;
2020/11/29 12:24:31;;;;;;;6.8;3.2;;;;;;;3.17;71.45801;940.6111;;;;
2020/11/29 12:26:56;;;;;;;4.1;1.7;;;;;;;3.01;72.0127;940.6656;;;;
2020/11/29 12:29:21;;;;;;;2.8;1.9;;;;;;;2.97;72.0625;940.6346;;;;
2020/11/29 12:31:48;;;;;;;3.7;2.8;;;;;;;3.1;71.40137;940.6664;;;;
2020/11/29 12:34:13;;;;;;;2.1;1.9;;;;;;;3.12;71.28125;940.6138;;;;
2020/11/29 12:36:39;;;;;;;5.9;2.9;;;;;;;3.06;71.78613;940.5883;;;;
2020/11/29 12:39:04;;;;;;;3.2;2.6;;;;;;;2.92;72.38086;940.6743;;;;
2020/11/29 12:41:32;;;;;;;3.9;2.7;;;;;;;3.06;71.98828;940.5828;;;;
2020/11/29 12:43:57;;;;;;;3.8;2.6;;;;;;;3.1;72.07324;940.567;;;;
2020/11/29 12:46:25;;;;;;;4.2;2.8;;;;;;;3.2;71.65332;940.5547;;;;
2020/11/29 12:48:50;;;;;;;5.7;2.7;;;;;;;3.38;70.94336;940.5064;;;;
2020/11/29 12:51:17;;;;;;;5.3;2.8;;;;;;;3.58;70.43652;940.4836;;;;
2020/11/29 12:53:42;;;;;;;2.8;2.4;;;;;;;3.61;70.66797;940.4302;;;;
2020/11/29 12:56:12;;;;;;;5;3.2;;;;;;;3.69;69.66797;940.4386;;;;
2020/11/29 12:58:41;;;;;;;3.3;2.4;;;;;;;3.5;70.58105;940.438;;;;
2020/11/29 13:01:06;;;;;;;5.4;3.3;;;;;;;3.48;71.16211;940.4506;;;;
2020/11/29 13:03:32;;;;;;;6.5;3.3;;;;;;;3.33;71.77637;940.3996;;;;
2020/11/29 13:05:57;;;;;;;6.5;2.8;;;;;;;3.31;71.86133;940.4483;;;;
2020/11/29 13:08:23;;;;;;;6.4;3.7;;;;;;;3.12;72.7959;940.3761;;;;
2020/11/29 13:10:48;;;;;;;6.2;3.5;;;;;;;3.48;71.63379;940.402;;;;
2020/11/29 13:13:13;;;;;;;4.8;2.7;;;;;;;2.91;72.72656;940.4672;;;;
2020/11/29 13:15:43;;;;;;;3.3;2.6;;;;;;;2.46;74.74414;940.505;;;;
2020/11/29 13:18:12;;;;;;;5.5;3.2;;;;;;;2.8;74.37891;940.5421;;;;
2020/11/29 13:20:37;;;;;;;5.4;2.6;;;;;;;2.9;73.50879;940.5373;;;;
2020/11/29 13:23:02;;;;;;;5.2;2.7;;;;;;;3.08;72.85547;940.5206;;;;
2020/11/29 13:25:28;;;;;;;6.3;3.7;;;;;;;3.17;72.09766;940.5;;;;
2020/11/29 13:27:55;;;;;;;6;3.2;;;;;;;3.16;71.47754;940.4609;;;;
2020/11/29 13:30:20;;;;;;;8.2;3.2;;;;;;;3.4;71.53027;940.5324;;;;
2020/11/29 13:32:48;;;;;;;6.9;3.1;;;;;;;3.47;71.42969;940.4802;;;;
2020/11/29 13:35:14;;;;;;;4.6;2.7;;;;;;;3.27;72.53027;940.4941;;;;
2020/11/29 13:37:39;;;;;;;6.4;2.5;;;;;;;3.49;71.73633;940.4778;;;;
2020/11/29 13:40:04;;;;;;;5.5;3.2;;;;;;;3.51;70.81836;940.4653;;;;
2020/11/29 13:42:32;;;;;;;4.9;3.2;;;;;;;3.39;71.64063;940.5446;;;;
2020/11/29 13:44:57;;;;;;;6.2;2.7;;;;;;;3.26;72.39258;940.5722;;;;
2020/11/29 13:47:24;;;;;;;7;3.2;;;;;;;3.24;72.76172;940.5929;;;;
2020/11/29 13:49:49;;;;;;;6;3.8;;;;;;;3.1;72.70117;940.6142;;;;
2020/11/29 13:52:17;;;;;;;3.5;3;;;;;;;3.24;72.55762;940.5839;;;;
2020/11/29 13:54:42;;;;;;;8.9;3.9;;;;;;;3.12;72.77344;940.6347;;;;
2020/11/29 13:57:08;;;;;;;4;2.7;;;;;;;3.12;72.80664;940.6799;;;;
2020/11/29 13:59:33;;;;;;;10.6;3.6;;;;;;;3.28;72.18359;940.6606;;;;
2020/11/29 14:02:03;;;;;;;4.6;3;;;;;;;3.15;73.63281;940.6951;;;;
2020/11/29 14:04:29;;;;;;;8.5;4.9;;;;;;;3.06;74.71484;940.7212;;;;
2020/11/29 14:06:55;;;;;;;8.6;3.7;;;;;;;3;75.19922;940.6976;;;;
2020/11/29 14:09:20;;;;;;;4.5;3;;;;;;;3.01;75.11133;940.8253;;;;
2020/11/29 14:11:48;;;;;;;8.4;3.9;;;;;;;2.73;75.70215;940.8038;;;;
2020/11/29 14:14:13;;;;;;;7.7;3.4;;;;;;;2.41;76.98828;940.8306;;;;
2020/11/29 14:16:38;;;;;;;3.9;2.4;;;;;;;2.5;76.73633;940.8532;;;;
2020/11/29 14:19:06;;;;;;;4.8;3.1;;;;;;;2.58;76.10059;940.8639;;;;
2020/11/29 14:21:29;;;;;;;4;3.1;;;;;;;2.26;77.4873;940.8911;;;;
2020/11/29 14:23:57;;;;;;;4.9;2.9;;;;;;;2.25;77.6084;940.912;;;;
2020/11/29 14:26:22;;;;;;;5.4;3.6;;;;;;;2.25;78.13477;940.9564;;;;
2020/11/29 14:28:48;;;;;;;5.9;3;;;;;;;2.21;77.34473;940.8787;;;;
2020/11/29 14:31:13;;;;;;;5;3.2;;;;;;;2.29;76.66504;941.0396;;;;
2020/11/29 14:33:41;;;;;;;5.3;2.6;;;;;;;2.21;77.01758;940.9926;;;;
2020/11/29 14:36:06;;;;;;;3.7;2.9;;;;;;;2.19;76.82422;941.0385;;;;
2020/11/29 14:38:32;;;;;;;6.1;3.2;;;;;;;2.22;76.75293;941.0851;;;;
2020/11/29 14:40:57;;;;;;;4.9;2.7;;;;;;;2.29;76.61816;941.0776;;;;
2020/11/29 14:43:24;;;;;;;6.8;3.5;;;;;;;1.99;77.25977;941.049;;;;
2020/11/29 14:45:49;;;;;;;3.2;2.2;;;;;;;2;77.32715;941.0712;;;;
2020/11/29 14:48:15;;;;;;;9;3.5;;;;;;;2.13;77.51855;941.049;;;;
2020/11/29 14:50:43;;;;;;;6.3;3.3;;;;;;;2.16;78.12988;941.0302;;;;
2020/11/29 14:53:08;;;;;;;7.4;3.6;;;;;;;2.3;78.33496;940.9517;;;;
2020/11/29 14:55:36;;;;;;;9.7;4.2;;;;;;;2.44;77.85449;941.0769;;;;
2020/11/29 14:58:01;;;;;;;6;3.1;;;;;;;2.43;78.06738;941.0566;;;;
2020/11/29 15:00:32;;;;;;;4.1;2.7;;;;;;;2.35;77.85059;941.0851;;;;
2020/11/29 15:02:58;;;;;;;6;3.3;;;;;;;2.41;77.7373;941.0605;;;;
2020/11/29 15:05:23;;;;;;;6.8;3.5;;;;;;;2.57;77.02734;941.1415;;;;
2020/11/29 15:07:50;;;;;;;8;3.3;;;;;;;2.57;76.70215;941.11;;;;
2020/11/29 15:10:15;;;;;;;6.1;3.3;;;;;;;2.32;77.58789;941.1923;;;;
2020/11/29 15:12:41;;;;;;;6;3.6;;;;;;;2.15;78.16113;941.1959;;;;
2020/11/29 15:15:07;;;;;;;4.8;3.6;;;;;;;2.11;78.75781;941.2037;;;;
2020/11/29 15:17:32;;;;;;;4.5;3.2;;;;;;;2.21;78.69922;941.2072;;;;
2020/11/29 15:19:57;;;;;;;5.5;3.4;;;;;;;2.2;78.34863;941.2124;;;;
2020/11/29 15:22:26;;;;;;;6.4;3.6;;;;;;;2.19;78.70508;941.187;;;;
2020/11/29 15:24:54;;;;;;;9.4;4.1;;;;;;;2.28;78.44238;941.1495;;;;
2020/11/29 15:27:19;;;;;;;7.1;3.8;;;;;;;2.08;80.42969;941.2361;;;;
2020/11/29 15:29:46;;;;;;;8.1;3.4;;;;;;;1.88;82.02637;941.2525;;;;
2020/11/29 15:32:11;;;;;;;8.4;4.2;;;;;;;1.93;82.09277;941.2925;;;;
2020/11/29 15:34:39;;;;;;;9.6;4.3;;;;;;;1.88;82.45313;941.2628;;;;
2020/11/29 15:37:04;;;;;;;6.7;4;;;;;;;1.82;82.93262;941.2827;;;;
2020/11/29 15:39:29;;;;;;;6;3.6;;;;;;;1.88;82.88965;941.2856;;;;
2020/11/29 15:41:56;;;;;;;7;4.5;;;;;;;1.8;82.87207;941.2665;;;;
2020/11/29 15:44:20;;;;;;;7.3;4.6;;;;;;;1.8;82.87207;941.2531;;;;
2020/11/29 15:46:46;;;;;;;7.7;3.8;;;;;;;1.86;82.61719;941.2352;;;;
2020/11/29 15:49:11;;;;;;;8.6;4.6;;;;;;;1.76;82.85352;941.223;;;;
2020/11/29 15:51:37;;;;;;;7.2;3.4;;;;;;;1.85;82.69238;941.2611;;;;